sensor_id;sensor_type;location;lat;lon;timestamp;P1;durP1;ratioP1;P2;durP2;ratioP2
60432;SDS011;46286;48.098;11.590;2023-02-27T00:00:31;6.13;;;3.70;;
60432;SDS011;46286;48.098;11.590;2023-02-27T00:03:16;6.63;;;3.35;;
60432;SDS011;46286;48.098;11.590;2023-02-27T00:05:42;6.43;;;3.22;;
60432;SDS011;46286;48.098;11.590;2023-02-27T00:08:08;6.50;;;3.30;;
60432;SDS011;46286;48.098;11.590;2023-02-27T00:10:34;7.63;;;3.58;;
60432;SDS011;46286;48.098;11.590;2023-02-27T00:12:59;7.82;;;3.58;;
60432;SDS011;46286;48.098;11.590;2023-02-27T00:15:25;6.80;;;3.33;;
60432;SDS011;46286;48.098;11.590;2023-02-27T00:17:50;7.43;;;3.88;;
60432;SDS011;46286;48.098;11.590;2023-02-27T00:20:17;7.45;;;3.38;;
60432;SDS011;46286;48.098;11.590;2023-02-27T00:22:43;8.15;;;3.55;;
60432;SDS011;46286;48.098;11.590;2023-02-27T00:25:10;7.03;;;3.42;;
60432;SDS011;46286;48.098;11.590;2023-02-27T00:27:36;6.32;;;3.45;;
60432;SDS011;46286;48.098;11.590;2023-02-27T00:30:03;6.13;;;3.30;;
60432;SDS011;46286;48.098;11.590;2023-02-27T00:32:30;6.47;;;3.03;;
60432;SDS011;46286;48.098;11.590;2023-02-27T00:34:55;7.30;;;3.33;;
60432;SDS011;46286;48.098;11.590;2023-02-27T00:37:21;8.32;;;3.65;;
60432;SDS011;46286;48.098;11.590;2023-02-27T00:39:46;6.05;;;3.38;;
60432;SDS011;46286;48.098;11.590;2023-02-27T00:42:12;5.38;;;2.92;;
60432;SDS011;46286;48.098;11.590;2023-02-27T00:44:38;6.65;;;3.53;;
60432;SDS011;46286;48.098;11.590;2023-02-27T00:47:05;7.10;;;3.92;;
60432;SDS011;46286;48.098;11.590;2023-02-27T00:49:30;8.68;;;3.42;;
60432;SDS011;46286;48.098;11.590;2023-02-27T00:51:56;8.27;;;4.10;;
60432;SDS011;46286;48.098;11.590;2023-02-27T00:54:21;7.55;;;3.10;;
60432;SDS011;46286;48.098;11.590;2023-02-27T00:56:47;9.45;;;3.95;;
60432;SDS011;46286;48.098;11.590;2023-02-27T00:59:12;6.32;;;3.42;;
60432;SDS011;46286;48.098;11.590;2023-02-27T01:01:39;7.40;;;3.50;;
60432;SDS011;46286;48.098;11.590;2023-02-27T01:04:04;7.60;;;3.60;;
60432;SDS011;46286;48.098;11.590;2023-02-27T01:06:30;6.65;;;3.58;;
60432;SDS011;46286;48.098;11.590;2023-02-27T01:08:55;9.70;;;3.58;;
60432;SDS011;46286;48.098;11.590;2023-02-27T01:11:21;9.95;;;3.83;;
60432;SDS011;46286;48.098;11.590;2023-02-27T01:13:46;6.20;;;3.50;;
60432;SDS011;46286;48.098;11.590;2023-02-27T01:16:12;7.88;;;4.13;;
60432;SDS011;46286;48.098;11.590;2023-02-27T01:18:38;5.47;;;3.22;;
60432;SDS011;46286;48.098;11.590;2023-02-27T01:21:04;5.38;;;3.42;;
60432;SDS011;46286;48.098;11.590;2023-02-27T01:23:30;6.00;;;3.40;;
60432;SDS011;46286;48.098;11.590;2023-02-27T01:25:56;7.60;;;3.50;;
60432;SDS011;46286;48.098;11.590;2023-02-27T01:28:21;6.38;;;3.20;;
60432;SDS011;46286;48.098;11.590;2023-02-27T01:30:47;7.32;;;3.90;;
60432;SDS011;46286;48.098;11.590;2023-02-27T01:33:12;8.40;;;3.83;;
60432;SDS011;46286;48.098;11.590;2023-02-27T01:35:38;7.15;;;3.75;;
60432;SDS011;46286;48.098;11.590;2023-02-27T01:38:03;7.15;;;3.25;;
60432;SDS011;46286;48.098;11.590;2023-02-27T01:40:29;5.53;;;2.88;;
60432;SDS011;46286;48.098;11.590;2023-02-27T01:42:59;12.10;;;3.45;;
60432;SDS011;46286;48.098;11.590;2023-02-27T01:45:32;6.03;;;3.47;;
60432;SDS011;46286;48.098;11.590;2023-02-27T01:48:07;7.75;;;3.40;;
60432;SDS011;46286;48.098;11.590;2023-02-27T01:50:39;9.18;;;3.83;;
60432;SDS011;46286;48.098;11.590;2023-02-27T01:53:09;7.45;;;3.40;;
60432;SDS011;46286;48.098;11.590;2023-02-27T01:55:36;7.65;;;3.90;;
60432;SDS011;46286;48.098;11.590;2023-02-27T01:58:04;7.15;;;3.42;;
60432;SDS011;46286;48.098;11.590;2023-02-27T02:00:32;6.45;;;3.70;;
60432;SDS011;46286;48.098;11.590;2023-02-27T02:03:21;7.10;;;3.53;;
60432;SDS011;46286;48.098;11.590;2023-02-27T02:05:59;6.97;;;3.70;;
60432;SDS011;46286;48.098;11.590;2023-02-27T02:08:28;11.48;;;3.83;;
60432;SDS011;46286;48.098;11.590;2023-02-27T02:10:56;6.57;;;3.63;;
60432;SDS011;46286;48.098;11.590;2023-02-27T02:13:22;7.18;;;3.65;;
60432;SDS011;46286;48.098;11.590;2023-02-27T02:15:56;7.65;;;3.33;;
60432;SDS011;46286;48.098;11.590;2023-02-27T02:27:20;8.80;;;4.00;;
60432;SDS011;46286;48.098;11.590;2023-02-27T02:33:17;7.75;;;3.95;;
60432;SDS011;46286;48.098;11.590;2023-02-27T02:46:34;9.68;;;3.90;;
60432;SDS011;46286;48.098;11.590;2023-02-27T02:49:20;7.93;;;4.25;;
60432;SDS011;46286;48.098;11.590;2023-02-27T02:51:51;6.93;;;3.83;;
60432;SDS011;46286;48.098;11.590;2023-02-27T02:54:37;7.85;;;3.63;;
60432;SDS011;46286;48.098;11.590;2023-02-27T03:02:55;7.15;;;3.58;;
60432;SDS011;46286;48.098;11.590;2023-02-27T03:05:31;6.80;;;3.83;;
60432;SDS011;46286;48.098;11.590;2023-02-27T03:10:32;6.75;;;3.38;;
60432;SDS011;46286;48.098;11.590;2023-02-27T03:13:04;8.60;;;4.05;;
60432;SDS011;46286;48.098;11.590;2023-02-27T03:15:48;10.63;;;4.00;;
60432;SDS011;46286;48.098;11.590;2023-02-27T03:18:34;10.68;;;3.40;;
60432;SDS011;46286;48.098;11.590;2023-02-27T03:21:07;9.27;;;3.83;;
60432;SDS011;46286;48.098;11.590;2023-02-27T03:23:39;8.30;;;3.58;;
60432;SDS011;46286;48.098;11.590;2023-02-27T03:26:08;10.40;;;4.03;;
60432;SDS011;46286;48.098;11.590;2023-02-27T03:28:41;7.38;;;4.03;;
60432;SDS011;46286;48.098;11.590;2023-02-27T03:31:22;9.55;;;3.85;;
60432;SDS011;46286;48.098;11.590;2023-02-27T03:33:57;8.88;;;3.85;;
60432;SDS011;46286;48.098;11.590;2023-02-27T03:47:02;7.47;;;3.60;;
60432;SDS011;46286;48.098;11.590;2023-02-27T03:49:27;8.38;;;3.45;;
60432;SDS011;46286;48.098;11.590;2023-02-27T03:51:53;10.35;;;3.17;;
60432;SDS011;46286;48.098;11.590;2023-02-27T03:54:19;9.75;;;3.97;;
60432;SDS011;46286;48.098;11.590;2023-02-27T03:56:53;8.20;;;3.92;;
60432;SDS011;46286;48.098;11.590;2023-02-27T03:59:23;9.30;;;4.17;;
60432;SDS011;46286;48.098;11.590;2023-02-27T04:01:50;6.95;;;3.70;;
60432;SDS011;46286;48.098;11.590;2023-02-27T04:04:17;8.65;;;4.00;;
60432;SDS011;46286;48.098;11.590;2023-02-27T04:06:45;6.53;;;3.10;;
60432;SDS011;46286;48.098;11.590;2023-02-27T04:12:42;12.55;;;4.32;;
60432;SDS011;46286;48.098;11.590;2023-02-27T04:29:11;6.00;;;3.40;;
60432;SDS011;46286;48.098;11.590;2023-02-27T04:31:46;7.45;;;4.07;;
60432;SDS011;46286;48.098;11.590;2023-02-27T04:34:20;7.25;;;4.07;;
60432;SDS011;46286;48.098;11.590;2023-02-27T04:39:31;7.50;;;3.88;;
60432;SDS011;46286;48.098;11.590;2023-02-27T04:42:09;7.10;;;4.32;;
60432;SDS011;46286;48.098;11.590;2023-02-27T04:44:41;7.68;;;3.92;;
60432;SDS011;46286;48.098;11.590;2023-02-27T04:47:09;8.18;;;4.18;;
60432;SDS011;46286;48.098;11.590;2023-02-27T04:49:42;8.07;;;3.80;;
60432;SDS011;46286;48.098;11.590;2023-02-27T04:52:22;6.50;;;3.75;;
60432;SDS011;46286;48.098;11.590;2023-02-27T04:57:25;6.43;;;3.55;;
60432;SDS011;46286;48.098;11.590;2023-02-27T04:59:56;8.23;;;3.67;;
60432;SDS011;46286;48.098;11.590;2023-02-27T05:02:30;9.68;;;4.47;;
60432;SDS011;46286;48.098;11.590;2023-02-27T05:05:01;6.65;;;3.80;;
60432;SDS011;46286;48.098;11.590;2023-02-27T05:07:39;8.18;;;3.95;;
60432;SDS011;46286;48.098;11.590;2023-02-27T05:10:16;8.52;;;4.10;;
60432;SDS011;46286;48.098;11.590;2023-02-27T05:12:51;10.77;;;4.35;;
60432;SDS011;46286;48.098;11.590;2023-02-27T05:15:30;9.18;;;3.72;;
60432;SDS011;46286;48.098;11.590;2023-02-27T05:18:04;7.57;;;3.90;;
60432;SDS011;46286;48.098;11.590;2023-02-27T05:26:19;13.57;;;4.57;;
60432;SDS011;46286;48.098;11.590;2023-02-27T05:29:18;7.50;;;3.58;;
60432;SDS011;46286;48.098;11.590;2023-02-27T05:31:52;10.90;;;4.40;;
60432;SDS011;46286;48.098;11.590;2023-02-27T05:34:32;6.68;;;3.97;;
60432;SDS011;46286;48.098;11.590;2023-02-27T05:37:08;8.48;;;4.07;;
60432;SDS011;46286;48.098;11.590;2023-02-27T05:39:39;7.13;;;3.90;;
60432;SDS011;46286;48.098;11.590;2023-02-27T05:42:10;8.40;;;3.83;;
60432;SDS011;46286;48.098;11.590;2023-02-27T05:44:44;11.38;;;3.90;;
60432;SDS011;46286;48.098;11.590;2023-02-27T05:47:17;8.68;;;4.25;;
60432;SDS011;46286;48.098;11.590;2023-02-27T05:49:54;7.28;;;4.25;;
60432;SDS011;46286;48.098;11.590;2023-02-27T05:52:26;9.13;;;3.70;;
60432;SDS011;46286;48.098;11.590;2023-02-27T05:57:56;10.30;;;3.78;;
60432;SDS011;46286;48.098;11.590;2023-02-27T06:00:28;8.60;;;3.90;;
60432;SDS011;46286;48.098;11.590;2023-02-27T06:03:01;6.68;;;3.70;;
60432;SDS011;46286;48.098;11.590;2023-02-27T06:05:26;9.43;;;4.35;;
60432;SDS011;46286;48.098;11.590;2023-02-27T06:07:53;8.52;;;3.78;;
60432;SDS011;46286;48.098;11.590;2023-02-27T06:10:18;7.95;;;3.83;;
60432;SDS011;46286;48.098;11.590;2023-02-27T06:12:45;7.38;;;3.83;;
60432;SDS011;46286;48.098;11.590;2023-02-27T06:15:11;6.13;;;3.42;;
60432;SDS011;46286;48.098;11.590;2023-02-27T06:17:37;7.65;;;3.70;;
60432;SDS011;46286;48.098;11.590;2023-02-27T06:20:03;7.28;;;3.63;;
60432;SDS011;46286;48.098;11.590;2023-02-27T06:22:31;7.28;;;3.97;;
60432;SDS011;46286;48.098;11.590;2023-02-27T06:24:57;8.05;;;4.25;;
60432;SDS011;46286;48.098;11.590;2023-02-27T06:27:23;8.77;;;4.22;;
60432;SDS011;46286;48.098;11.590;2023-02-27T06:29:51;7.88;;;3.70;;
60432;SDS011;46286;48.098;11.590;2023-02-27T06:32:18;9.90;;;3.85;;
60432;SDS011;46286;48.098;11.590;2023-02-27T06:34:44;6.97;;;3.70;;
60432;SDS011;46286;48.098;11.590;2023-02-27T06:37:10;8.57;;;3.65;;
60432;SDS011;46286;48.098;11.590;2023-02-27T06:39:35;8.95;;;4.25;;
60432;SDS011;46286;48.098;11.590;2023-02-27T06:42:01;7.97;;;4.15;;
60432;SDS011;46286;48.098;11.590;2023-02-27T06:44:26;10.75;;;3.85;;
60432;SDS011;46286;48.098;11.590;2023-02-27T06:46:52;9.18;;;3.70;;
60432;SDS011;46286;48.098;11.590;2023-02-27T06:49:17;7.40;;;3.75;;
60432;SDS011;46286;48.098;11.590;2023-02-27T06:51:43;7.95;;;3.80;;
60432;SDS011;46286;48.098;11.590;2023-02-27T06:54:08;6.82;;;3.40;;
60432;SDS011;46286;48.098;11.590;2023-02-27T06:56:34;7.75;;;3.65;;
60432;SDS011;46286;48.098;11.590;2023-02-27T06:58:59;6.22;;;3.47;;
60432;SDS011;46286;48.098;11.590;2023-02-27T07:01:25;7.15;;;4.03;;
60432;SDS011;46286;48.098;11.590;2023-02-27T07:03:51;8.15;;;3.80;;
60432;SDS011;46286;48.098;11.590;2023-02-27T07:06:16;11.40;;;4.32;;
60432;SDS011;46286;48.098;11.590;2023-02-27T07:08:42;8.18;;;3.85;;
60432;SDS011;46286;48.098;11.590;2023-02-27T07:11:07;10.88;;;3.80;;
60432;SDS011;46286;48.098;11.590;2023-02-27T07:13:33;7.10;;;3.28;;
60432;SDS011;46286;48.098;11.590;2023-02-27T07:15:58;8.43;;;3.42;;
60432;SDS011;46286;48.098;11.590;2023-02-27T07:18:24;7.40;;;3.40;;
60432;SDS011;46286;48.098;11.590;2023-02-27T07:20:50;8.70;;;3.78;;
60432;SDS011;46286;48.098;11.590;2023-02-27T07:23:16;8.00;;;3.80;;
60432;SDS011;46286;48.098;11.590;2023-02-27T07:25:42;6.70;;;3.63;;
60432;SDS011;46286;48.098;11.590;2023-02-27T07:28:08;7.63;;;3.53;;
60432;SDS011;46286;48.098;11.590;2023-02-27T07:30:33;8.77;;;3.75;;
60432;SDS011;46286;48.098;11.590;2023-02-27T07:32:59;7.35;;;3.40;;
60432;SDS011;46286;48.098;11.590;2023-02-27T07:35:24;11.50;;;3.88;;
60432;SDS011;46286;48.098;11.590;2023-02-27T07:37:50;6.95;;;3.63;;
60432;SDS011;46286;48.098;11.590;2023-02-27T07:40:16;8.75;;;3.63;;
60432;SDS011;46286;48.098;11.590;2023-02-27T07:42:41;11.10;;;4.03;;
60432;SDS011;46286;48.098;11.590;2023-02-27T07:45:07;10.25;;;3.90;;
60432;SDS011;46286;48.098;11.590;2023-02-27T07:47:34;8.48;;;4.13;;
60432;SDS011;46286;48.098;11.590;2023-02-27T07:50:00;7.70;;;3.75;;
60432;SDS011;46286;48.098;11.590;2023-02-27T07:52:25;8.05;;;3.97;;
60432;SDS011;46286;48.098;11.590;2023-02-27T07:54:51;8.93;;;4.07;;
60432;SDS011;46286;48.098;11.590;2023-02-27T07:57:17;11.73;;;4.22;;
60432;SDS011;46286;48.098;11.590;2023-02-27T07:59:42;7.43;;;3.50;;
60432;SDS011;46286;48.098;11.590;2023-02-27T08:02:09;7.75;;;3.72;;
60432;SDS011;46286;48.098;11.590;2023-02-27T08:04:36;12.50;;;4.22;;
60432;SDS011;46286;48.098;11.590;2023-02-27T08:07:01;6.82;;;3.42;;
60432;SDS011;46286;48.098;11.590;2023-02-27T08:09:27;8.05;;;3.78;;
60432;SDS011;46286;48.098;11.590;2023-02-27T08:11:54;9.77;;;4.13;;
60432;SDS011;46286;48.098;11.590;2023-02-27T08:14:21;11.73;;;3.40;;
60432;SDS011;46286;48.098;11.590;2023-02-27T08:16:47;7.63;;;3.70;;
60432;SDS011;46286;48.098;11.590;2023-02-27T08:19:12;5.80;;;3.53;;
60432;SDS011;46286;48.098;11.590;2023-02-27T08:21:38;5.88;;;3.55;;
60432;SDS011;46286;48.098;11.590;2023-02-27T08:24:04;8.43;;;4.15;;
60432;SDS011;46286;48.098;11.590;2023-02-27T08:26:30;9.02;;;3.70;;
60432;SDS011;46286;48.098;11.590;2023-02-27T08:28:56;8.73;;;4.05;;
60432;SDS011;46286;48.098;11.590;2023-02-27T08:31:21;9.18;;;4.00;;
60432;SDS011;46286;48.098;11.590;2023-02-27T08:33:47;11.15;;;3.97;;
60432;SDS011;46286;48.098;11.590;2023-02-27T08:36:13;11.68;;;5.13;;
60432;SDS011;46286;48.098;11.590;2023-02-27T08:38:39;7.53;;;3.67;;
60432;SDS011;46286;48.098;11.590;2023-02-27T08:41:04;9.80;;;4.20;;
60432;SDS011;46286;48.098;11.590;2023-02-27T08:43:30;7.20;;;3.70;;
60432;SDS011;46286;48.098;11.590;2023-02-27T08:45:55;6.78;;;3.65;;
60432;SDS011;46286;48.098;11.590;2023-02-27T08:48:21;6.82;;;3.80;;
60432;SDS011;46286;48.098;11.590;2023-02-27T08:50:49;10.90;;;4.40;;
60432;SDS011;46286;48.098;11.590;2023-02-27T08:53:15;8.68;;;4.43;;
60432;SDS011;46286;48.098;11.590;2023-02-27T08:55:40;14.23;;;4.10;;
60432;SDS011;46286;48.098;11.590;2023-02-27T08:58:07;6.15;;;3.85;;
60432;SDS011;46286;48.098;11.590;2023-02-27T09:00:33;8.80;;;4.18;;
60432;SDS011;46286;48.098;11.590;2023-02-27T09:02:59;10.55;;;4.72;;
60432;SDS011;46286;48.098;11.590;2023-02-27T09:05:25;11.30;;;4.53;;
60432;SDS011;46286;48.098;11.590;2023-02-27T09:07:51;7.75;;;4.22;;
60432;SDS011;46286;48.098;11.590;2023-02-27T09:10:17;12.07;;;4.40;;
60432;SDS011;46286;48.098;11.590;2023-02-27T09:12:43;10.10;;;4.95;;
60432;SDS011;46286;48.098;11.590;2023-02-27T09:15:09;11.93;;;4.47;;
60432;SDS011;46286;48.098;11.590;2023-02-27T09:17:36;8.85;;;4.35;;
60432;SDS011;46286;48.098;11.590;2023-02-27T09:20:02;7.25;;;3.97;;
60432;SDS011;46286;48.098;11.590;2023-02-27T09:22:29;8.73;;;4.38;;
60432;SDS011;46286;48.098;11.590;2023-02-27T09:24:55;13.27;;;4.35;;
60432;SDS011;46286;48.098;11.590;2023-02-27T09:27:21;10.18;;;4.13;;
60432;SDS011;46286;48.098;11.590;2023-02-27T09:29:48;11.30;;;4.55;;
60432;SDS011;46286;48.098;11.590;2023-02-27T09:32:22;10.63;;;5.22;;
60432;SDS011;46286;48.098;11.590;2023-02-27T09:34:48;11.18;;;4.63;;
60432;SDS011;46286;48.098;11.590;2023-02-27T09:37:14;8.82;;;4.30;;
60432;SDS011;46286;48.098;11.590;2023-02-27T09:39:40;7.47;;;4.45;;
60432;SDS011;46286;48.098;11.590;2023-02-27T09:42:23;10.32;;;4.80;;
60432;SDS011;46286;48.098;11.590;2023-02-27T09:44:55;8.50;;;4.78;;
60432;SDS011;46286;48.098;11.590;2023-02-27T09:47:24;9.30;;;5.07;;
60432;SDS011;46286;48.098;11.590;2023-02-27T09:52:20;9.70;;;5.15;;
60432;SDS011;46286;48.098;11.590;2023-02-27T09:54:45;17.10;;;5.70;;
60432;SDS011;46286;48.098;11.590;2023-02-27T09:57:14;9.65;;;5.10;;
60432;SDS011;46286;48.098;11.590;2023-02-27T09:59:45;8.95;;;4.30;;
60432;SDS011;46286;48.098;11.590;2023-02-27T10:07:29;8.43;;;3.72;;
60432;SDS011;46286;48.098;11.590;2023-02-27T10:10:16;7.45;;;3.70;;
60432;SDS011;46286;48.098;11.590;2023-02-27T10:15:51;9.15;;;3.90;;
60432;SDS011;46286;48.098;11.590;2023-02-27T10:18:21;9.40;;;3.92;;
60432;SDS011;46286;48.098;11.590;2023-02-27T10:20:57;10.82;;;3.83;;
60432;SDS011;46286;48.098;11.590;2023-02-27T10:23:40;7.75;;;3.92;;
60432;SDS011;46286;48.098;11.590;2023-02-27T10:26:20;12.40;;;4.30;;
60432;SDS011;46286;48.098;11.590;2023-02-27T10:28:49;8.63;;;4.30;;
60432;SDS011;46286;48.098;11.590;2023-02-27T10:31:15;8.65;;;4.05;;
60432;SDS011;46286;48.098;11.590;2023-02-27T10:33:45;9.75;;;4.38;;
60432;SDS011;46286;48.098;11.590;2023-02-27T10:36:13;7.50;;;4.00;;
60432;SDS011;46286;48.098;11.590;2023-02-27T10:38:47;8.40;;;4.07;;
60432;SDS011;46286;48.098;11.590;2023-02-27T10:41:16;15.32;;;4.40;;
60432;SDS011;46286;48.098;11.590;2023-02-27T10:43:44;9.23;;;3.70;;
60432;SDS011;46286;48.098;11.590;2023-02-27T10:46:20;7.30;;;3.53;;
60432;SDS011;46286;48.098;11.590;2023-02-27T10:48:49;6.40;;;3.35;;
60432;SDS011;46286;48.098;11.590;2023-02-27T10:51:25;11.52;;;3.75;;
60432;SDS011;46286;48.098;11.590;2023-02-27T10:56:50;7.32;;;3.50;;
60432;SDS011;46286;48.098;11.590;2023-02-27T10:59:20;5.35;;;3.22;;
60432;SDS011;46286;48.098;11.590;2023-02-27T11:01:59;6.88;;;2.97;;
60432;SDS011;46286;48.098;11.590;2023-02-27T11:07:02;6.70;;;3.20;;
60432;SDS011;46286;48.098;11.590;2023-02-27T11:09:30;8.95;;;3.30;;
60432;SDS011;46286;48.098;11.590;2023-02-27T11:12:08;6.82;;;3.38;;
60432;SDS011;46286;48.098;11.590;2023-02-27T11:14:55;8.10;;;3.72;;
60432;SDS011;46286;48.098;11.590;2023-02-27T11:17:27;6.30;;;3.30;;
60432;SDS011;46286;48.098;11.590;2023-02-27T11:19:56;8.77;;;3.25;;
60432;SDS011;46286;48.098;11.590;2023-02-27T11:22:23;5.57;;;3.03;;
60432;SDS011;46286;48.098;11.590;2023-02-27T11:24:51;7.97;;;3.25;;
60432;SDS011;46286;48.098;11.590;2023-02-27T11:27:33;8.35;;;3.30;;
60432;SDS011;46286;48.098;11.590;2023-02-27T11:30:00;6.15;;;2.75;;
60432;SDS011;46286;48.098;11.590;2023-02-27T11:32:39;6.25;;;3.25;;
60432;SDS011;46286;48.098;11.590;2023-02-27T11:35:21;7.70;;;3.03;;
60432;SDS011;46286;48.098;11.590;2023-02-27T11:37:51;6.20;;;2.63;;
60432;SDS011;46286;48.098;11.590;2023-02-27T11:40:19;7.50;;;3.33;;
60432;SDS011;46286;48.098;11.590;2023-02-27T11:42:47;4.30;;;2.72;;
60432;SDS011;46286;48.098;11.590;2023-02-27T11:45:29;6.57;;;2.80;;
60432;SDS011;46286;48.098;11.590;2023-02-27T11:48:05;5.97;;;2.83;;
60432;SDS011;46286;48.098;11.590;2023-02-27T11:55:47;8.60;;;2.95;;
60432;SDS011;46286;48.098;11.590;2023-02-27T11:58:16;5.15;;;2.47;;
60432;SDS011;46286;48.098;11.590;2023-02-27T12:00:48;9.93;;;2.80;;
60432;SDS011;46286;48.098;11.590;2023-02-27T12:06:00;6.18;;;2.88;;
60432;SDS011;46286;48.098;11.590;2023-02-27T12:08:35;5.82;;;2.92;;
60432;SDS011;46286;48.098;11.590;2023-02-27T12:11:20;5.75;;;2.28;;
60432;SDS011;46286;48.098;11.590;2023-02-27T12:16:55;7.07;;;2.70;;
60432;SDS011;46286;48.098;11.590;2023-02-27T12:19:37;4.50;;;2.75;;
60432;SDS011;46286;48.098;11.590;2023-02-27T12:22:19;4.05;;;2.40;;
60432;SDS011;46286;48.098;11.590;2023-02-27T12:24:53;3.92;;;2.30;;
60432;SDS011;46286;48.098;11.590;2023-02-27T12:30:15;5.13;;;2.60;;
60432;SDS011;46286;48.098;11.590;2023-02-27T12:32:55;5.85;;;2.80;;
60432;SDS011;46286;48.098;11.590;2023-02-27T12:35:31;5.82;;;2.65;;
60432;SDS011;46286;48.098;11.590;2023-02-27T12:38:00;8.18;;;2.70;;
60432;SDS011;46286;48.098;11.590;2023-02-27T12:40:28;6.28;;;2.47;;
60432;SDS011;46286;48.098;11.590;2023-02-27T12:43:02;3.55;;;2.10;;
60432;SDS011;46286;48.098;11.590;2023-02-27T12:45:56;5.60;;;2.60;;
60432;SDS011;46286;48.098;11.590;2023-02-27T12:53:56;6.82;;;2.85;;
60432;SDS011;46286;48.098;11.590;2023-02-27T13:00:03;6.18;;;2.42;;
60432;SDS011;46286;48.098;11.590;2023-02-27T13:11:21;5.13;;;2.58;;
60432;SDS011;46286;48.098;11.590;2023-02-27T13:16:11;7.47;;;2.90;;
60432;SDS011;46286;48.098;11.590;2023-02-27T13:18:54;6.25;;;2.70;;
60432;SDS011;46286;48.098;11.590;2023-02-27T13:21:37;6.10;;;2.60;;
60432;SDS011;46286;48.098;11.590;2023-02-27T13:24:16;6.82;;;2.90;;
60432;SDS011;46286;48.098;11.590;2023-02-27T13:26:45;8.10;;;2.67;;
60432;SDS011;46286;48.098;11.590;2023-02-27T13:29:18;7.07;;;2.50;;
60432;SDS011;46286;48.098;11.590;2023-02-27T13:31:49;7.20;;;2.53;;
60432;SDS011;46286;48.098;11.590;2023-02-27T13:37:04;8.40;;;3.03;;
60432;SDS011;46286;48.098;11.590;2023-02-27T13:42:03;5.22;;;2.72;;
60432;SDS011;46286;48.098;11.590;2023-02-27T13:44:49;5.18;;;2.67;;
60432;SDS011;46286;48.098;11.590;2023-02-27T13:49:59;5.25;;;2.60;;
60432;SDS011;46286;48.098;11.590;2023-02-27T13:52:27;4.85;;;2.72;;
60432;SDS011;46286;48.098;11.590;2023-02-27T13:54:55;6.47;;;2.70;;
60432;SDS011;46286;48.098;11.590;2023-02-27T13:57:28;6.22;;;2.83;;
60432;SDS011;46286;48.098;11.590;2023-02-27T14:00:00;7.38;;;3.55;;
60432;SDS011;46286;48.098;11.590;2023-02-27T14:02:34;5.80;;;3.13;;
60432;SDS011;46286;48.098;11.590;2023-02-27T14:05:06;6.65;;;3.03;;
60432;SDS011;46286;48.098;11.590;2023-02-27T14:07:47;6.30;;;3.10;;
60432;SDS011;46286;48.098;11.590;2023-02-27T14:10:24;5.75;;;2.85;;
60432;SDS011;46286;48.098;11.590;2023-02-27T14:12:51;8.38;;;3.20;;
60432;SDS011;46286;48.098;11.590;2023-02-27T14:17:46;7.97;;;3.25;;
60432;SDS011;46286;48.098;11.590;2023-02-27T14:25:57;7.70;;;3.00;;
60432;SDS011;46286;48.098;11.590;2023-02-27T14:31:20;6.20;;;2.75;;
60432;SDS011;46286;48.098;11.590;2023-02-27T14:33:47;10.55;;;3.38;;
60432;SDS011;46286;48.098;11.590;2023-02-27T14:36:22;7.32;;;3.45;;
60432;SDS011;46286;48.098;11.590;2023-02-27T14:38:49;6.13;;;3.35;;
60432;SDS011;46286;48.098;11.590;2023-02-27T14:44:19;8.23;;;3.28;;
60432;SDS011;46286;48.098;11.590;2023-02-27T14:46:49;11.45;;;4.00;;
60432;SDS011;46286;48.098;11.590;2023-02-27T14:49:21;7.82;;;3.00;;
60432;SDS011;46286;48.098;11.590;2023-02-27T14:51:49;6.57;;;3.72;;
60432;SDS011;46286;48.098;11.590;2023-02-27T14:54:16;9.73;;;3.40;;
60432;SDS011;46286;48.098;11.590;2023-02-27T14:57:00;8.18;;;3.55;;
60432;SDS011;46286;48.098;11.590;2023-02-27T14:59:30;9.73;;;3.45;;
60432;SDS011;46286;48.098;11.590;2023-02-27T15:01:58;7.35;;;3.33;;
60432;SDS011;46286;48.098;11.590;2023-02-27T15:04:28;5.63;;;2.92;;
60432;SDS011;46286;48.098;11.590;2023-02-27T15:06:55;6.82;;;3.03;;
60432;SDS011;46286;48.098;11.590;2023-02-27T15:09:29;7.90;;;3.55;;
60432;SDS011;46286;48.098;11.590;2023-02-27T15:11:59;5.80;;;2.90;;
60432;SDS011;46286;48.098;11.590;2023-02-27T15:14:29;9.48;;;3.40;;
60432;SDS011;46286;48.098;11.590;2023-02-27T15:16:58;9.18;;;3.22;;
60432;SDS011;46286;48.098;11.590;2023-02-27T15:19:24;7.20;;;3.55;;
60432;SDS011;46286;48.098;11.590;2023-02-27T15:21:52;5.57;;;3.25;;
60432;SDS011;46286;48.098;11.590;2023-02-27T15:24:28;4.55;;;2.92;;
60432;SDS011;46286;48.098;11.590;2023-02-27T15:26:58;7.38;;;3.35;;
60432;SDS011;46286;48.098;11.590;2023-02-27T15:29:40;7.38;;;3.45;;
60432;SDS011;46286;48.098;11.590;2023-02-27T15:32:13;6.28;;;3.13;;
60432;SDS011;46286;48.098;11.590;2023-02-27T15:34:44;10.05;;;3.47;;
60432;SDS011;46286;48.098;11.590;2023-02-27T15:37:17;9.13;;;3.20;;
60432;SDS011;46286;48.098;11.590;2023-02-27T15:39:47;12.93;;;3.95;;
60432;SDS011;46286;48.098;11.590;2023-02-27T15:42:14;6.72;;;3.00;;
60432;SDS011;46286;48.098;11.590;2023-02-27T15:44:41;7.85;;;3.80;;
60432;SDS011;46286;48.098;11.590;2023-02-27T15:47:09;6.45;;;3.15;;
60432;SDS011;46286;48.098;11.590;2023-02-27T15:49:37;5.55;;;3.05;;
60432;SDS011;46286;48.098;11.590;2023-02-27T15:52:25;8.65;;;3.40;;
60432;SDS011;46286;48.098;11.590;2023-02-27T15:54:52;6.57;;;3.05;;
60432;SDS011;46286;48.098;11.590;2023-02-27T15:57:23;6.65;;;3.05;;
60432;SDS011;46286;48.098;11.590;2023-02-27T15:59:53;4.63;;;2.78;;
60432;SDS011;46286;48.098;11.590;2023-02-27T16:02:39;7.20;;;3.05;;
60432;SDS011;46286;48.098;11.590;2023-02-27T16:05:13;5.85;;;2.95;;
60432;SDS011;46286;48.098;11.590;2023-02-27T16:07:44;7.03;;;3.30;;
60432;SDS011;46286;48.098;11.590;2023-02-27T16:10:29;7.65;;;3.10;;
60432;SDS011;46286;48.098;11.590;2023-02-27T16:16:04;6.57;;;3.03;;
60432;SDS011;46286;48.098;11.590;2023-02-27T16:18:45;5.28;;;3.00;;
60432;SDS011;46286;48.098;11.590;2023-02-27T16:21:17;7.25;;;2.90;;
60432;SDS011;46286;48.098;11.590;2023-02-27T16:23:47;6.78;;;3.08;;
60432;SDS011;46286;48.098;11.590;2023-02-27T16:31:30;5.57;;;2.95;;
60432;SDS011;46286;48.098;11.590;2023-02-27T16:33:59;10.20;;;3.00;;
60432;SDS011;46286;48.098;11.590;2023-02-27T16:36:28;4.80;;;2.67;;
60432;SDS011;46286;48.098;11.590;2023-02-27T16:38:55;6.25;;;3.10;;
60432;SDS011;46286;48.098;11.590;2023-02-27T16:41:21;5.28;;;3.03;;
60432;SDS011;46286;48.098;11.590;2023-02-27T16:43:48;8.00;;;3.50;;
60432;SDS011;46286;48.098;11.590;2023-02-27T16:46:15;5.75;;;3.10;;
60432;SDS011;46286;48.098;11.590;2023-02-27T16:48:45;8.43;;;3.60;;
60432;SDS011;46286;48.098;11.590;2023-02-27T16:51:16;7.05;;;3.28;;
60432;SDS011;46286;48.098;11.590;2023-02-27T16:53:44;5.82;;;3.13;;
60432;SDS011;46286;48.098;11.590;2023-02-27T16:56:11;4.93;;;2.80;;
60432;SDS011;46286;48.098;11.590;2023-02-27T16:58:37;8.82;;;3.35;;
60432;SDS011;46286;48.098;11.590;2023-02-27T17:01:03;7.03;;;3.13;;
60432;SDS011;46286;48.098;11.590;2023-02-27T17:03:29;8.75;;;3.70;;
60432;SDS011;46286;48.098;11.590;2023-02-27T17:05:55;5.53;;;3.33;;
60432;SDS011;46286;48.098;11.590;2023-02-27T17:08:22;7.25;;;3.15;;
60432;SDS011;46286;48.098;11.590;2023-02-27T17:10:48;6.78;;;3.33;;
60432;SDS011;46286;48.098;11.590;2023-02-27T17:13:14;9.27;;;4.00;;
60432;SDS011;46286;48.098;11.590;2023-02-27T17:15:40;8.27;;;3.30;;
60432;SDS011;46286;48.098;11.590;2023-02-27T17:18:05;5.88;;;3.22;;
60432;SDS011;46286;48.098;11.590;2023-02-27T17:20:31;8.23;;;4.15;;
60432;SDS011;46286;48.098;11.590;2023-02-27T17:22:57;6.22;;;3.38;;